sensor_id;sensor_type;location;lat;lon;timestamp;P1;durP1;ratioP1;P2;durP2;ratioP2
51824;SDS011;37879;52.986;6.282;2022-12-18T00:01:20;52.67;;;20.40;;
51824;SDS011;37879;52.986;6.282;2022-12-18T00:03:48;82.85;;;32.10;;
51824;SDS011;37879;52.986;6.282;2022-12-18T00:06:14;73.25;;;29.15;;
51824;SDS011;37879;52.986;6.282;2022-12-18T00:08:40;75.93;;;28.50;;
51824;SDS011;37879;52.986;6.282;2022-12-18T00:11:07;60.45;;;22.60;;
51824;SDS011;37879;52.986;6.282;2022-12-18T00:13:36;50.75;;;17.15;;
51824;SDS011;37879;52.986;6.282;2022-12-18T00:16:06;70.43;;;27.90;;
51824;SDS011;37879;52.986;6.282;2022-12-18T00:18:34;69.97;;;28.52;;
51824;SDS011;37879;52.986;6.282;2022-12-18T00:21:00;54.67;;;20.95;;
51824;SDS011;37879;52.986;6.282;2022-12-18T00:23:28;54.30;;;20.92;;
51824;SDS011;37879;52.986;6.282;2022-12-18T00:25:54;56.40;;;21.75;;
51824;SDS011;37879;52.986;6.282;2022-12-18T00:28:23;53.00;;;22.23;;
51824;SDS011;37879;52.986;6.282;2022-12-18T00:30:49;54.33;;;21.23;;
51824;SDS011;37879;52.986;6.282;2022-12-18T00:33:16;67.82;;;26.10;;
51824;SDS011;37879;52.986;6.282;2022-12-18T00:35:42;63.15;;;24.92;;
51824;SDS011;37879;52.986;6.282;2022-12-18T00:38:08;49.33;;;18.35;;
51824;SDS011;37879;52.986;6.282;2022-12-18T00:40:34;50.95;;;21.08;;
51824;SDS011;37879;52.986;6.282;2022-12-18T00:42:59;69.45;;;28.23;;
51824;SDS011;37879;52.986;6.282;2022-12-18T00:45:26;61.83;;;25.33;;
51824;SDS011;37879;52.986;6.282;2022-12-18T00:47:53;66.75;;;25.60;;
51824;SDS011;37879;52.986;6.282;2022-12-18T00:50:20;48.90;;;19.50;;
51824;SDS011;37879;52.986;6.282;2022-12-18T00:52:46;68.80;;;26.27;;
51824;SDS011;37879;52.986;6.282;2022-12-18T00:55:13;58.83;;;24.75;;
51824;SDS011;37879;52.986;6.282;2022-12-18T00:57:39;50.13;;;20.75;;
51824;SDS011;37879;52.986;6.282;2022-12-18T01:00:06;63.00;;;25.60;;
51824;SDS011;37879;52.986;6.282;2022-12-18T01:02:33;72.35;;;26.42;;
51824;SDS011;37879;52.986;6.282;2022-12-18T01:04:59;66.05;;;26.35;;
51824;SDS011;37879;52.986;6.282;2022-12-18T01:07:24;68.78;;;26.67;;
51824;SDS011;37879;52.986;6.282;2022-12-18T01:09:50;55.17;;;19.63;;
51824;SDS011;37879;52.986;6.282;2022-12-18T01:12:16;56.08;;;21.08;;
51824;SDS011;37879;52.986;6.282;2022-12-18T01:14:41;70.00;;;26.52;;
51824;SDS011;37879;52.986;6.282;2022-12-18T01:17:07;59.45;;;23.33;;
51824;SDS011;37879;52.986;6.282;2022-12-18T01:19:33;50.90;;;19.55;;
51824;SDS011;37879;52.986;6.282;2022-12-18T01:21:58;55.60;;;22.90;;
51824;SDS011;37879;52.986;6.282;2022-12-18T01:24:24;64.35;;;25.48;;
51824;SDS011;37879;52.986;6.282;2022-12-18T01:26:50;65.03;;;24.50;;
51824;SDS011;37879;52.986;6.282;2022-12-18T01:29:16;60.78;;;23.52;;
51824;SDS011;37879;52.986;6.282;2022-12-18T01:31:41;56.35;;;22.80;;
51824;SDS011;37879;52.986;6.282;2022-12-18T01:34:08;52.08;;;21.05;;
51824;SDS011;37879;52.986;6.282;2022-12-18T01:36:34;55.83;;;23.60;;
51824;SDS011;37879;52.986;6.282;2022-12-18T01:39:03;38.25;;;15.20;;
51824;SDS011;37879;52.986;6.282;2022-12-18T01:41:31;62.75;;;23.23;;
51824;SDS011;37879;52.986;6.282;2022-12-18T01:49:51;61.58;;;22.15;;
51824;SDS011;37879;52.986;6.282;2022-12-18T01:52:18;59.95;;;23.35;;
51824;SDS011;37879;52.986;6.282;2022-12-18T01:54:45;56.60;;;20.65;;
51824;SDS011;37879;52.986;6.282;2022-12-18T01:57:13;54.28;;;19.58;;
51824;SDS011;37879;52.986;6.282;2022-12-18T01:59:40;52.22;;;19.42;;
51824;SDS011;37879;52.986;6.282;2022-12-18T02:02:07;58.35;;;22.55;;
51824;SDS011;37879;52.986;6.282;2022-12-18T02:04:34;56.17;;;22.95;;
51824;SDS011;37879;52.986;6.282;2022-12-18T02:09:57;70.03;;;27.05;;
51824;SDS011;37879;52.986;6.282;2022-12-18T02:12:41;52.03;;;21.80;;
51824;SDS011;37879;52.986;6.282;2022-12-18T02:17:58;74.15;;;27.65;;
51824;SDS011;37879;52.986;6.282;2022-12-18T02:20:36;61.92;;;24.67;;
51824;SDS011;37879;52.986;6.282;2022-12-18T02:28:56;58.17;;;22.45;;
51824;SDS011;37879;52.986;6.282;2022-12-18T02:31:27;52.28;;;21.13;;
51824;SDS011;37879;52.986;6.282;2022-12-18T02:33:56;55.88;;;23.58;;
51824;SDS011;37879;52.986;6.282;2022-12-18T02:36:26;54.47;;;21.85;;
51824;SDS011;37879;52.986;6.282;2022-12-18T02:38:53;66.55;;;25.02;;
51824;SDS011;37879;52.986;6.282;2022-12-18T02:41:24;63.53;;;27.92;;
51824;SDS011;37879;52.986;6.282;2022-12-18T02:43:56;66.82;;;25.50;;
51824;SDS011;37879;52.986;6.282;2022-12-18T02:46:31;55.53;;;23.65;;
51824;SDS011;37879;52.986;6.282;2022-12-18T02:49:09;60.97;;;24.52;;
51824;SDS011;37879;52.986;6.282;2022-12-18T02:51:46;66.10;;;26.30;;
51824;SDS011;37879;52.986;6.282;2022-12-18T02:57:15;71.32;;;27.42;;
51824;SDS011;37879;52.986;6.282;2022-12-18T03:00:03;67.40;;;26.98;;
51824;SDS011;37879;52.986;6.282;2022-12-18T03:05:17;48.88;;;21.80;;
51824;SDS011;37879;52.986;6.282;2022-12-18T03:07:58;54.78;;;21.98;;
51824;SDS011;37879;52.986;6.282;2022-12-18T03:10:33;55.38;;;22.45;;
51824;SDS011;37879;52.986;6.282;2022-12-18T03:13:04;64.22;;;26.05;;
51824;SDS011;37879;52.986;6.282;2022-12-18T03:15:35;63.90;;;27.35;;
51824;SDS011;37879;52.986;6.282;2022-12-18T03:18:10;53.55;;;21.27;;
51824;SDS011;37879;52.986;6.282;2022-12-18T03:20:46;46.72;;;19.90;;
51824;SDS011;37879;52.986;6.282;2022-12-18T03:23:18;64.95;;;26.73;;
51824;SDS011;37879;52.986;6.282;2022-12-18T03:25:46;59.20;;;26.52;;
51824;SDS011;37879;52.986;6.282;2022-12-18T03:28:18;43.83;;;18.55;;
51824;SDS011;37879;52.986;6.282;2022-12-18T03:30:47;54.65;;;24.30;;
51824;SDS011;37879;52.986;6.282;2022-12-18T03:34:02;53.92;;;21.38;;
51824;SDS011;37879;52.986;6.282;2022-12-18T03:36:10;50.97;;;22.23;;
51824;SDS011;37879;52.986;6.282;2022-12-18T03:38:36;48.03;;;21.30;;
51824;SDS011;37879;52.986;6.282;2022-12-18T03:41:08;57.92;;;23.38;;
51824;SDS011;37879;52.986;6.282;2022-12-18T03:43:42;59.97;;;23.20;;
51824;SDS011;37879;52.986;6.282;2022-12-18T03:49:26;48.42;;;22.08;;
51824;SDS011;37879;52.986;6.282;2022-12-18T03:52:13;46.70;;;19.98;;
51824;SDS011;37879;52.986;6.282;2022-12-18T03:54:51;50.17;;;22.33;;
51824;SDS011;37879;52.986;6.282;2022-12-18T03:57:22;52.60;;;19.48;;
51824;SDS011;37879;52.986;6.282;2022-12-18T03:59:52;50.50;;;22.13;;
51824;SDS011;37879;52.986;6.282;2022-12-18T04:02:22;47.85;;;19.55;;
51824;SDS011;37879;52.986;6.282;2022-12-18T04:04:51;51.85;;;18.98;;
51824;SDS011;37879;52.986;6.282;2022-12-18T04:07:18;48.55;;;18.45;;
51824;SDS011;37879;52.986;6.282;2022-12-18T04:09:46;59.80;;;22.95;;
51824;SDS011;37879;52.986;6.282;2022-12-18T04:12:13;49.63;;;18.00;;
51824;SDS011;37879;52.986;6.282;2022-12-18T04:14:39;37.33;;;16.88;;
51824;SDS011;37879;52.986;6.282;2022-12-18T04:17:05;52.70;;;20.95;;
51824;SDS011;37879;52.986;6.282;2022-12-18T04:19:30;38.65;;;15.65;;
51824;SDS011;37879;52.986;6.282;2022-12-18T04:21:56;48.45;;;18.65;;
51824;SDS011;37879;52.986;6.282;2022-12-18T04:24:22;41.60;;;16.67;;
51824;SDS011;37879;52.986;6.282;2022-12-18T04:26:47;59.85;;;22.13;;
51824;SDS011;37879;52.986;6.282;2022-12-18T04:29:13;44.92;;;19.60;;
51824;SDS011;37879;52.986;6.282;2022-12-18T04:31:39;44.13;;;18.33;;
51824;SDS011;37879;52.986;6.282;2022-12-18T04:34:04;53.92;;;22.25;;
51824;SDS011;37879;52.986;6.282;2022-12-18T04:36:30;46.17;;;17.17;;
51824;SDS011;37879;52.986;6.282;2022-12-18T04:38:56;49.00;;;22.45;;
51824;SDS011;37879;52.986;6.282;2022-12-18T04:41:21;40.25;;;18.00;;
51824;SDS011;37879;52.986;6.282;2022-12-18T04:43:47;43.83;;;17.80;;
51824;SDS011;37879;52.986;6.282;2022-12-18T04:46:13;38.45;;;15.10;;
51824;SDS011;37879;52.986;6.282;2022-12-18T04:48:39;40.03;;;15.90;;
51824;SDS011;37879;52.986;6.282;2022-12-18T04:51:05;47.85;;;15.85;;
51824;SDS011;37879;52.986;6.282;2022-12-18T04:53:31;44.45;;;17.33;;
51824;SDS011;37879;52.986;6.282;2022-12-18T04:56:08;39.58;;;17.10;;
51824;SDS011;37879;52.986;6.282;2022-12-18T04:58:36;40.85;;;17.25;;
51824;SDS011;37879;52.986;6.282;2022-12-18T05:01:02;44.83;;;17.45;;
51824;SDS011;37879;52.986;6.282;2022-12-18T05:03:28;46.22;;;17.95;;
51824;SDS011;37879;52.986;6.282;2022-12-18T05:05:54;46.42;;;18.35;;
51824;SDS011;37879;52.986;6.282;2022-12-18T05:08:20;47.63;;;20.25;;
51824;SDS011;37879;52.986;6.282;2022-12-18T05:10:46;46.65;;;21.60;;
51824;SDS011;37879;52.986;6.282;2022-12-18T05:13:11;45.05;;;17.55;;
51824;SDS011;37879;52.986;6.282;2022-12-18T05:15:37;35.50;;;16.30;;
51824;SDS011;37879;52.986;6.282;2022-12-18T05:18:03;38.13;;;14.48;;
51824;SDS011;37879;52.986;6.282;2022-12-18T05:20:29;38.75;;;15.02;;
51824;SDS011;37879;52.986;6.282;2022-12-18T05:22:55;37.70;;;14.70;;
51824;SDS011;37879;52.986;6.282;2022-12-18T05:25:21;43.88;;;18.00;;
51824;SDS011;37879;52.986;6.282;2022-12-18T05:27:48;42.67;;;18.10;;
51824;SDS011;37879;52.986;6.282;2022-12-18T05:30:14;41.92;;;16.38;;
51824;SDS011;37879;52.986;6.282;2022-12-18T05:32:40;46.25;;;18.73;;
51824;SDS011;37879;52.986;6.282;2022-12-18T05:35:07;43.58;;;18.13;;
51824;SDS011;37879;52.986;6.282;2022-12-18T05:37:34;37.85;;;14.90;;
51824;SDS011;37879;52.986;6.282;2022-12-18T05:40:03;38.70;;;16.55;;
51824;SDS011;37879;52.986;6.282;2022-12-18T05:42:30;42.70;;;16.13;;
51824;SDS011;37879;52.986;6.282;2022-12-18T05:44:55;48.58;;;18.10;;
51824;SDS011;37879;52.986;6.282;2022-12-18T05:47:21;39.67;;;17.15;;
51824;SDS011;37879;52.986;6.282;2022-12-18T05:49:47;40.15;;;17.33;;
51824;SDS011;37879;52.986;6.282;2022-12-18T05:52:12;29.98;;;12.95;;
51824;SDS011;37879;52.986;6.282;2022-12-18T05:54:38;45.55;;;17.92;;
51824;SDS011;37879;52.986;6.282;2022-12-18T05:57:04;37.83;;;15.20;;
51824;SDS011;37879;52.986;6.282;2022-12-18T05:59:30;44.25;;;19.75;;
51824;SDS011;37879;52.986;6.282;2022-12-18T06:01:56;40.25;;;16.85;;
51824;SDS011;37879;52.986;6.282;2022-12-18T06:04:22;45.28;;;18.10;;
51824;SDS011;37879;52.986;6.282;2022-12-18T06:06:48;40.45;;;18.88;;
51824;SDS011;37879;52.986;6.282;2022-12-18T06:09:14;47.92;;;19.55;;
51824;SDS011;37879;52.986;6.282;2022-12-18T06:11:39;36.05;;;15.57;;
51824;SDS011;37879;52.986;6.282;2022-12-18T06:14:05;47.28;;;17.13;;
51824;SDS011;37879;52.986;6.282;2022-12-18T06:16:31;37.30;;;14.05;;
51824;SDS011;37879;52.986;6.282;2022-12-18T06:18:57;39.08;;;15.73;;
51824;SDS011;37879;52.986;6.282;2022-12-18T06:21:25;39.83;;;16.80;;
51824;SDS011;37879;52.986;6.282;2022-12-18T06:23:51;49.58;;;18.10;;
51824;SDS011;37879;52.986;6.282;2022-12-18T06:26:17;37.65;;;15.25;;
51824;SDS011;37879;52.986;6.282;2022-12-18T06:28:43;43.75;;;17.50;;
51824;SDS011;37879;52.986;6.282;2022-12-18T06:31:09;46.53;;;18.33;;
51824;SDS011;37879;52.986;6.282;2022-12-18T06:33:35;40.72;;;16.00;;
51824;SDS011;37879;52.986;6.282;2022-12-18T06:36:02;40.85;;;17.98;;
51824;SDS011;37879;52.986;6.282;2022-12-18T06:38:33;42.97;;;17.02;;
51824;SDS011;37879;52.986;6.282;2022-12-18T06:41:00;36.92;;;16.70;;
51824;SDS011;37879;52.986;6.282;2022-12-18T06:43:26;47.45;;;18.73;;
51824;SDS011;37879;52.986;6.282;2022-12-18T06:45:57;34.25;;;13.45;;
51824;SDS011;37879;52.986;6.282;2022-12-18T06:48:24;34.13;;;13.88;;
51824;SDS011;37879;52.986;6.282;2022-12-18T06:50:50;32.05;;;14.32;;
51824;SDS011;37879;52.986;6.282;2022-12-18T06:53:15;40.08;;;15.38;;
51824;SDS011;37879;52.986;6.282;2022-12-18T06:55:41;35.47;;;14.55;;
51824;SDS011;37879;52.986;6.282;2022-12-18T06:58:07;40.45;;;16.52;;
51824;SDS011;37879;52.986;6.282;2022-12-18T07:00:32;38.97;;;15.02;;
51824;SDS011;37879;52.986;6.282;2022-12-18T07:02:58;36.88;;;13.93;;
51824;SDS011;37879;52.986;6.282;2022-12-18T07:05:24;39.45;;;15.77;;
51824;SDS011;37879;52.986;6.282;2022-12-18T07:07:49;34.67;;;15.23;;
51824;SDS011;37879;52.986;6.282;2022-12-18T07:10:15;30.40;;;12.45;;
51824;SDS011;37879;52.986;6.282;2022-12-18T07:12:41;33.08;;;15.63;;
51824;SDS011;37879;52.986;6.282;2022-12-18T07:15:06;36.25;;;13.98;;
51824;SDS011;37879;52.986;6.282;2022-12-18T07:17:32;41.15;;;15.35;;
51824;SDS011;37879;52.986;6.282;2022-12-18T07:19:58;27.38;;;13.27;;
51824;SDS011;37879;52.986;6.282;2022-12-18T07:22:27;30.92;;;13.23;;
51824;SDS011;37879;52.986;6.282;2022-12-18T07:24:53;30.58;;;13.75;;
51824;SDS011;37879;52.986;6.282;2022-12-18T07:27:18;35.50;;;15.43;;
51824;SDS011;37879;52.986;6.282;2022-12-18T07:29:44;28.85;;;13.13;;
51824;SDS011;37879;52.986;6.282;2022-12-18T07:32:10;26.50;;;13.02;;
51824;SDS011;37879;52.986;6.282;2022-12-18T07:34:36;37.30;;;12.95;;
51824;SDS011;37879;52.986;6.282;2022-12-18T07:37:01;29.92;;;12.65;;
51824;SDS011;37879;52.986;6.282;2022-12-18T07:39:27;28.85;;;12.80;;
51824;SDS011;37879;52.986;6.282;2022-12-18T07:41:53;25.77;;;12.10;;
51824;SDS011;37879;52.986;6.282;2022-12-18T07:44:37;31.63;;;11.93;;
51824;SDS011;37879;52.986;6.282;2022-12-18T07:47:03;30.20;;;13.43;;
51824;SDS011;37879;52.986;6.282;2022-12-18T07:49:29;25.88;;;11.77;;
51824;SDS011;37879;52.986;6.282;2022-12-18T07:51:55;26.25;;;11.65;;
51824;SDS011;37879;52.986;6.282;2022-12-18T07:54:22;24.90;;;11.50;;
51824;SDS011;37879;52.986;6.282;2022-12-18T07:56:48;30.42;;;12.57;;
51824;SDS011;37879;52.986;6.282;2022-12-18T07:59:14;29.33;;;11.98;;
51824;SDS011;37879;52.986;6.282;2022-12-18T08:01:40;29.33;;;14.02;;
51824;SDS011;37879;52.986;6.282;2022-12-18T08:04:06;31.67;;;13.85;;
51824;SDS011;37879;52.986;6.282;2022-12-18T08:06:31;30.60;;;14.35;;
51824;SDS011;37879;52.986;6.282;2022-12-18T08:08:57;25.80;;;10.73;;
51824;SDS011;37879;52.986;6.282;2022-12-18T08:11:23;30.33;;;11.55;;
51824;SDS011;37879;52.986;6.282;2022-12-18T08:13:51;25.65;;;12.13;;
51824;SDS011;37879;52.986;6.282;2022-12-18T08:16:17;28.83;;;13.20;;
51824;SDS011;37879;52.986;6.282;2022-12-18T08:18:43;27.27;;;12.57;;
51824;SDS011;37879;52.986;6.282;2022-12-18T08:21:13;32.20;;;14.43;;
51824;SDS011;37879;52.986;6.282;2022-12-18T08:23:41;27.17;;;12.80;;
51824;SDS011;37879;52.986;6.282;2022-12-18T08:26:07;29.20;;;12.23;;
51824;SDS011;37879;52.986;6.282;2022-12-18T08:28:33;24.92;;;12.20;;
51824;SDS011;37879;52.986;6.282;2022-12-18T08:30:59;30.45;;;13.00;;
51824;SDS011;37879;52.986;6.282;2022-12-18T08:33:25;22.15;;;10.27;;
51824;SDS011;37879;52.986;6.282;2022-12-18T08:35:51;23.15;;;11.15;;
51824;SDS011;37879;52.986;6.282;2022-12-18T08:38:17;28.08;;;12.20;;
51824;SDS011;37879;52.986;6.282;2022-12-18T08:40:43;28.35;;;12.82;;
51824;SDS011;37879;52.986;6.282;2022-12-18T08:43:09;29.30;;;13.38;;
51824;SDS011;37879;52.986;6.282;2022-12-18T08:45:54;38.60;;;21.83;;
51824;SDS011;37879;52.986;6.282;2022-12-18T08:48:20;37.22;;;17.05;;
51824;SDS011;37879;52.986;6.282;2022-12-18T08:50:58;32.85;;;15.27;;
51824;SDS011;37879;52.986;6.282;2022-12-18T08:53:24;18.10;;;10.35;;
51824;SDS011;37879;52.986;6.282;2022-12-18T08:55:51;29.40;;;15.32;;
51824;SDS011;37879;52.986;6.282;2022-12-18T08:58:17;35.90;;;16.58;;
51824;SDS011;37879;52.986;6.282;2022-12-18T09:00:43;40.42;;;16.63;;
51824;SDS011;37879;52.986;6.282;2022-12-18T09:03:12;33.58;;;16.23;;
51824;SDS011;37879;52.986;6.282;2022-12-18T09:05:42;34.92;;;15.88;;
51824;SDS011;37879;52.986;6.282;2022-12-18T09:08:08;29.30;;;15.25;;
51824;SDS011;37879;52.986;6.282;2022-12-18T09:10:40;23.70;;;11.90;;
51824;SDS011;37879;52.986;6.282;2022-12-18T09:13:08;33.30;;;15.98;;
51824;SDS011;37879;52.986;6.282;2022-12-18T09:15:39;42.28;;;23.30;;
51824;SDS011;37879;52.986;6.282;2022-12-18T09:18:16;37.70;;;17.02;;
51824;SDS011;37879;52.986;6.282;2022-12-18T09:20:44;34.90;;;18.30;;
51824;SDS011;37879;52.986;6.282;2022-12-18T09:23:10;29.73;;;16.33;;
51824;SDS011;37879;52.986;6.282;2022-12-18T09:25:36;37.03;;;16.38;;
51824;SDS011;37879;52.986;6.282;2022-12-18T09:28:04;28.70;;;15.13;;
51824;SDS011;37879;52.986;6.282;2022-12-18T09:30:41;22.02;;;11.48;;
51824;SDS011;37879;52.986;6.282;2022-12-18T09:33:08;26.92;;;12.45;;
51824;SDS011;37879;52.986;6.282;2022-12-18T09:35:37;32.00;;;15.13;;
51824;SDS011;37879;52.986;6.282;2022-12-18T09:38:03;33.33;;;15.82;;
51824;SDS011;37879;52.986;6.282;2022-12-18T09:40:32;28.73;;;11.73;;
51824;SDS011;37879;52.986;6.282;2022-12-18T09:43:03;27.65;;;11.77;;
51824;SDS011;37879;52.986;6.282;2022-12-18T09:45:40;26.25;;;11.88;;
51824;SDS011;37879;52.986;6.282;2022-12-18T09:48:10;27.83;;;11.45;;
51824;SDS011;37879;52.986;6.282;2022-12-18T09:50:58;25.02;;;11.93;;
51824;SDS011;37879;52.986;6.282;2022-12-18T09:53:30;24.50;;;12.70;;
51824;SDS011;37879;52.986;6.282;2022-12-18T09:55:59;21.50;;;11.30;;
51824;SDS011;37879;52.986;6.282;2022-12-18T09:58:35;24.25;;;10.20;;
51824;SDS011;37879;52.986;6.282;2022-12-18T10:01:09;23.88;;;13.20;;
51824;SDS011;37879;52.986;6.282;2022-12-18T10:03:36;21.45;;;11.63;;
51824;SDS011;37879;52.986;6.282;2022-12-18T10:14:44;20.23;;;10.95;;
51824;SDS011;37879;52.986;6.282;2022-12-18T10:22:53;35.38;;;18.40;;
51824;SDS011;37879;52.986;6.282;2022-12-18T10:25:59;59.85;;;31.45;;
51824;SDS011;37879;52.986;6.282;2022-12-18T10:28:32;55.08;;;29.20;;
51824;SDS011;37879;52.986;6.282;2022-12-18T10:31:07;37.60;;;20.42;;
51824;SDS011;37879;52.986;6.282;2022-12-18T10:33:56;30.13;;;17.67;;
51824;SDS011;37879;52.986;6.282;2022-12-18T10:36:23;30.58;;;16.65;;
51824;SDS011;37879;52.986;6.282;2022-12-18T10:38:49;21.75;;;13.57;;
51824;SDS011;37879;52.986;6.282;2022-12-18T10:43:46;26.85;;;16.02;;
51824;SDS011;37879;52.986;6.282;2022-12-18T10:46:15;27.02;;;14.15;;
51824;SDS011;37879;52.986;6.282;2022-12-18T10:56:27;24.08;;;13.57;;
51824;SDS011;37879;52.986;6.282;2022-12-18T10:58:58;29.92;;;16.90;;
51824;SDS011;37879;52.986;6.282;2022-12-18T11:01:33;31.85;;;19.35;;
51824;SDS011;37879;52.986;6.282;2022-12-18T11:04:13;52.10;;;31.58;;
51824;SDS011;37879;52.986;6.282;2022-12-18T11:07:19;19.45;;;11.15;;
51824;SDS011;37879;52.986;6.282;2022-12-18T11:09:38;17.60;;;11.20;;
51824;SDS011;37879;52.986;6.282;2022-12-18T11:14:52;17.83;;;9.25;;
51824;SDS011;37879;52.986;6.282;2022-12-18T11:20:41;13.48;;;8.30;;
51824;SDS011;37879;52.986;6.282;2022-12-18T11:23:10;12.65;;;6.32;;
51824;SDS011;37879;52.986;6.282;2022-12-18T11:25:38;15.02;;;8.07;;
51824;SDS011;37879;52.986;6.282;2022-12-18T11:28:08;11.63;;;6.50;;
51824;SDS011;37879;52.986;6.282;2022-12-18T11:36:34;14.38;;;7.18;;
51824;SDS011;37879;52.986;6.282;2022-12-18T11:42:12;13.57;;;7.78;;
51824;SDS011;37879;52.986;6.282;2022-12-18T11:44:49;19.23;;;10.38;;
51824;SDS011;37879;52.986;6.282;2022-12-18T11:47:37;23.15;;;10.95;;
51824;SDS011;37879;52.986;6.282;2022-12-18T11:50:17;15.05;;;8.45;;
51824;SDS011;37879;52.986;6.282;2022-12-18T11:52:47;15.73;;;9.68;;
51824;SDS011;37879;52.986;6.282;2022-12-18T11:55:14;12.68;;;6.18;;
51824;SDS011;37879;52.986;6.282;2022-12-18T12:00:24;9.25;;;6.10;;
51824;SDS011;37879;52.986;6.282;2022-12-18T12:21:18;12.98;;;7.63;;
51824;SDS011;37879;52.986;6.282;2022-12-18T12:29:18;8.45;;;4.45;;
51824;SDS011;37879;52.986;6.282;2022-12-18T12:37:53;11.18;;;6.10;;
51824;SDS011;37879;52.986;6.282;2022-12-18T12:40:31;11.57;;;6.18;;
51824;SDS011;37879;52.986;6.282;2022-12-18T12:43:16;8.45;;;5.93;;
51824;SDS011;37879;52.986;6.282;2022-12-18T12:45:53;8.48;;;3.83;;
51824;SDS011;37879;52.986;6.282;2022-12-18T12:51:12;7.65;;;5.10;;
51824;SDS011;37879;52.986;6.282;2022-12-18T12:53:46;8.05;;;4.03;;
51824;SDS011;37879;52.986;6.282;2022-12-18T12:56:14;8.35;;;4.80;;
51824;SDS011;37879;52.986;6.282;2022-12-18T13:01:32;10.68;;;5.70;;
51824;SDS011;37879;52.986;6.282;2022-12-18T13:04:22;9.88;;;5.05;;
51824;SDS011;37879;52.986;6.282;2022-12-18T13:15:28;6.70;;;4.15;;
51824;SDS011;37879;52.986;6.282;2022-12-18T13:18:23;8.68;;;5.05;;
51824;SDS011;37879;52.986;6.282;2022-12-18T13:20:50;10.30;;;6.15;;
51824;SDS011;37879;52.986;6.282;2022-12-18T13:25:45;10.70;;;6.15;;
51824;SDS011;37879;52.986;6.282;2022-12-18T13:28:12;10.05;;;4.97;;
51824;SDS011;37879;52.986;6.282;2022-12-18T13:30:44;13.90;;;7.05;;
51824;SDS011;37879;52.986;6.282;2022-12-18T13:41:04;9.25;;;5.30;;
51824;SDS011;37879;52.986;6.282;2022-12-18T13:43:43;12.77;;;6.45;;
51824;SDS011;37879;52.986;6.282;2022-12-18T13:48:52;8.40;;;4.38;;
51824;SDS011;37879;52.986;6.282;2022-12-18T13:51:21;9.82;;;5.78;;
51824;SDS011;37879;52.986;6.282;2022-12-18T13:53:49;12.80;;;5.90;;
51824;SDS011;37879;52.986;6.282;2022-12-18T13:56:25;10.63;;;5.80;;
51824;SDS011;37879;52.986;6.282;2022-12-18T14:01:53;15.88;;;6.10;;
51824;SDS011;37879;52.986;6.282;2022-12-18T14:04:30;15.18;;;7.25;;
51824;SDS011;37879;52.986;6.282;2022-12-18T14:07:05;15.85;;;6.78;;
51824;SDS011;37879;52.986;6.282;2022-12-18T14:09:43;13.20;;;5.97;;
51824;SDS011;37879;52.986;6.282;2022-12-18T14:15:06;9.32;;;4.90;;
51824;SDS011;37879;52.986;6.282;2022-12-18T14:18:00;12.07;;;5.93;;
51824;SDS011;37879;52.986;6.282;2022-12-18T14:20:47;14.98;;;6.07;;
51824;SDS011;37879;52.986;6.282;2022-12-18T14:23:25;14.40;;;7.72;;
51824;SDS011;37879;52.986;6.282;2022-12-18T14:25:55;11.45;;;5.75;;
51824;SDS011;37879;52.986;6.282;2022-12-18T14:28:21;10.68;;;5.82;;
51824;SDS011;37879;52.986;6.282;2022-12-18T14:30:47;12.07;;;6.68;;
51824;SDS011;37879;52.986;6.282;2022-12-18T14:33:18;9.35;;;5.05;;
51824;SDS011;37879;52.986;6.282;2022-12-18T14:38:35;15.10;;;6.63;;
51824;SDS011;37879;52.986;6.282;2022-12-18T14:41:03;10.68;;;5.75;;
51824;SDS011;37879;52.986;6.282;2022-12-18T14:43:40;7.45;;;5.05;;
51824;SDS011;37879;52.986;6.282;2022-12-18T14:46:30;20.30;;;12.45;;
51824;SDS011;37879;52.986;6.282;2022-12-18T14:49:00;19.70;;;11.77;;
51824;SDS011;37879;52.986;6.282;2022-12-18T14:51:49;22.42;;;13.43;;
51824;SDS011;37879;52.986;6.282;2022-12-18T14:54:18;18.50;;;10.05;;
51824;SDS011;37879;52.986;6.282;2022-12-18T14:59:46;11.40;;;6.97;;
51824;SDS011;37879;52.986;6.282;2022-12-18T15:02:22;12.18;;;6.75;;
51824;SDS011;37879;52.986;6.282;2022-12-18T15:05:14;9.73;;;6.47;;
51824;SDS011;37879;52.986;6.282;2022-12-18T15:07:48;12.45;;;7.03;;
51824;SDS011;37879;52.986;6.282;2022-12-18T15:12:47;11.25;;;6.88;;
51824;SDS011;37879;52.986;6.282;2022-12-18T15:17:58;10.10;;;5.55;;
51824;SDS011;37879;52.986;6.282;2022-12-18T15:20:41;10.98;;;6.18;;
51824;SDS011;37879;52.986;6.282;2022-12-18T15:23:24;12.00;;;5.90;;
51824;SDS011;37879;52.986;6.282;2022-12-18T15:26:00;14.60;;;6.78;;
51824;SDS011;37879;52.986;6.282;2022-12-18T15:28:27;13.02;;;7.15;;
51824;SDS011;37879;52.986;6.282;2022-12-18T15:36:10;12.88;;;6.07;;
51824;SDS011;37879;52.986;6.282;2022-12-18T15:38:37;12.60;;;6.20;;
51824;SDS011;37879;52.986;6.282;2022-12-18T15:41:11;13.98;;;7.60;;
51824;SDS011;37879;52.986;6.282;2022-12-18T15:43:45;11.80;;;6.18;;
51824;SDS011;37879;52.986;6.282;2022-12-18T15:46:22;11.82;;;5.65;;
51824;SDS011;37879;52.986;6.282;2022-12-18T15:48:53;8.43;;;4.38;;
51824;SDS011;37879;52.986;6.282;2022-12-18T15:51:27;11.93;;;6.35;;
51824;SDS011;37879;52.986;6.282;2022-12-18T15:53:56;9.95;;;4.88;;
51824;SDS011;37879;52.986;6.282;2022-12-18T15:56:25;10.05;;;5.60;;
51824;SDS011;37879;52.986;6.282;2022-12-18T15:59:10;12.63;;;6.00;;
51824;SDS011;37879;52.986;6.282;2022-12-18T16:01:37;13.07;;;6.57;;
51824;SDS011;37879;52.986;6.282;2022-12-18T16:04:04;10.68;;;5.65;;
51824;SDS011;37879;52.986;6.282;2022-12-18T16:06:29;11.85;;;6.50;;
51824;SDS011;37879;52.986;6.282;2022-12-18T16:08:55;13.30;;;6.10;;
51824;SDS011;37879;52.986;6.282;2022-12-18T16:14:08;13.98;;;6.90;;
51824;SDS011;37879;52.986;6.282;2022-12-18T16:16:43;13.68;;;7.15;;
51824;SDS011;37879;52.986;6.282;2022-12-18T16:19:09;14.20;;;6.15;;
51824;SDS011;37879;52.986;6.282;2022-12-18T16:21:35;13.52;;;6.15;;
51824;SDS011;37879;52.986;6.282;2022-12-18T16:24:01;9.35;;;4.55;;
51824;SDS011;37879;52.986;6.282;2022-12-18T16:26:26;11.70;;;6.15;;
51824;SDS011;37879;52.986;6.282;2022-12-18T16:28:52;11.85;;;6.55;;
51824;SDS011;37879;52.986;6.282;2022-12-18T16:31:18;12.48;;;6.70;;
51824;SDS011;37879;52.986;6.282;2022-12-18T16:33:44;12.88;;;6.53;;
51824;SDS011;37879;52.986;6.282;2022-12-18T16:36:09;12.75;;;7.03;;
51824;SDS011;37879;52.986;6.282;2022-12-18T16:38:35;12.63;;;6.20;;
51824;SDS011;37879;52.986;6.282;2022-12-18T16:41:01;19.10;;;9.90;;
51824;SDS011;37879;52.986;6.282;2022-12-18T16:43:45;13.15;;;6.70;;
51824;SDS011;37879;52.986;6.282;2022-12-18T16:46:11;14.15;;;8.00;;
51824;SDS011;37879;52.986;6.282;2022-12-18T16:48:37;21.45;;;10.30;;
51824;SDS011;37879;52.986;6.282;2022-12-18T16:51:03;21.27;;;10.50;;
51824;SDS011;37879;52.986;6.282;2022-12-18T16:53:30;21.25;;;11.35;;
51824;SDS011;37879;52.986;6.282;2022-12-18T16:55:57;17.08;;;10.13;;
51824;SDS011;37879;52.986;6.282;2022-12-18T16:58:23;13.45;;;8.52;;
51824;SDS011;37879;52.986;6.282;2022-12-18T17:00:48;17.73;;;8.82;;
51824;SDS011;37879;52.986;6.282;2022-12-18T17:03:14;22.30;;;10.63;;
51824;SDS011;37879;52.986;6.282;2022-12-18T17:05:40;13.52;;;7.25;;
51824;SDS011;37879;52.986;6.282;2022-12-18T17:08:05;14.18;;;8.25;;
51824;SDS011;37879;52.986;6.282;2022-12-18T17:10:33;18.60;;;9.98;;